createdAt,value
2017-08-22T00:00:23.884Z,16.83
2017-08-22T00:01:23.546Z,16.72
2017-08-22T00:02:23.855Z,16.76
2017-08-22T00:03:23.822Z,16.72
2017-08-22T00:04:23.802Z,16.75
2017-08-22T00:05:23.781Z,16.74
2017-08-22T00:06:23.458Z,16.75
2017-08-22T00:07:23.148Z,16.87
2017-08-22T00:08:23.739Z,16.79
2017-08-22T00:09:23.720Z,16.74
2017-08-22T00:10:23.720Z,16.76
2017-08-22T00:11:23.503Z,16.72
2017-08-22T00:12:23.670Z,16.72
2017-08-22T00:13:23.349Z,16.81
2017-08-22T00:14:23.649Z,16.81
2017-08-22T00:15:23.631Z,16.79
2017-08-22T00:16:23.603Z,16.68
2017-08-22T00:17:23.600Z,16.72
2017-08-22T00:18:23.570Z,16.72
2017-08-22T00:19:23.550Z,16.56
2017-08-22T00:20:23.260Z,16.66
2017-08-22T00:21:23.512Z,16.58
2017-08-22T00:22:23.504Z,16.58
2017-08-22T00:23:23.190Z,16.54
2017-08-22T00:24:23.171Z,16.61
2017-08-22T00:25:23.170Z,16.58
2017-08-22T00:26:22.809Z,16.58
2017-08-22T00:27:23.430Z,16.58
2017-08-22T00:28:23.410Z,16.61
2017-08-22T00:29:23.188Z,16.58
2017-08-22T00:30:23.370Z,16.58
2017-08-22T00:31:23.149Z,16.56
2017-08-22T00:32:23.332Z,16.61
2017-08-22T00:33:22.789Z,16.78
2017-08-22T00:34:23.021Z,16.58
2017-08-22T00:35:23.281Z,16.54
2017-08-22T00:36:23.270Z,16.46
2017-08-22T00:37:22.643Z,16.54
2017-08-22T00:38:22.611Z,16.45
2017-08-22T00:39:22.919Z,16.38
2017-08-22T00:40:23.210Z,16.35
2017-08-22T00:41:23.190Z,16.36
2017-08-22T00:42:22.540Z,16.41
2017-08-22T00:43:23.159Z,16.51
2017-08-22T00:44:22.893Z,16.45
2017-08-22T00:45:22.801Z,16.48
2017-08-22T00:46:22.871Z,16.54
2017-08-22T00:47:23.082Z,16.54
2017-08-22T00:48:23.060Z,16.54
2017-08-22T00:49:22.745Z,16.45
2017-08-22T00:50:23.031Z,16.41
2017-08-22T00:51:23.021Z,16.45
2017-08-22T00:52:23.001Z,16.51
2017-08-22T00:53:22.377Z,16.5
2017-08-22T00:54:22.961Z,16.57
2017-08-22T00:55:22.631Z,16.56
2017-08-22T00:56:22.928Z,16.63
2017-08-22T00:57:22.612Z,16.64
2017-08-22T00:58:22.277Z,16.57
2017-08-22T00:59:22.886Z,16.5
2017-08-22T01:00:22.881Z,16.54
2017-08-22T01:01:22.846Z,16.51
2017-08-22T01:02:22.511Z,16.54
2017-08-22T01:03:22.810Z,16.43
2017-08-22T01:04:22.809Z,16.48
2017-08-22T01:05:22.162Z,16.57
2017-08-22T01:06:22.751Z,16.54
2017-08-22T01:07:22.429Z,16.53
2017-08-22T01:08:22.721Z,16.5
2017-08-22T01:09:22.401Z,16.45
2017-08-22T01:10:22.381Z,16.34
2017-08-22T01:11:22.669Z,16.46
2017-08-22T01:12:22.059Z,16.45
2017-08-22T01:13:22.333Z,16.39
2017-08-22T01:14:22.530Z,16.48
2017-08-22T01:15:21.990Z,16.46
2017-08-22T01:16:22.283Z,16.5
2017-08-22T01:17:21.960Z,16.42
2017-08-22T01:18:22.240Z,16.48
2017-08-22T01:19:22.240Z,16.45
2017-08-22T01:20:22.216Z,16.42
2017-08-22T01:21:22.500Z,16.54
2017-08-22T01:22:22.179Z,16.46
2017-08-22T01:23:22.462Z,16.35
2017-08-22T01:24:21.841Z,16.45
2017-08-22T01:25:22.142Z,16.53
2017-08-22T01:26:21.799Z,16.51
2017-08-22T01:27:21.791Z,16.46
2017-08-22T01:28:22.100Z,16.45
2017-08-22T01:29:22.060Z,16.54
2017-08-22T01:30:22.350Z,16.54
2017-08-22T01:31:22.050Z,16.45
2017-08-22T01:32:22.010Z,16.5
2017-08-22T01:33:22.330Z,16.51
2017-08-22T01:34:21.683Z,16.53
2017-08-22T01:35:21.960Z,16.38
2017-08-22T01:36:22.282Z,16.45
2017-08-22T01:37:22.308Z,16.46
2017-08-22T01:38:21.912Z,16.43
2017-08-22T01:39:21.686Z,16.46
2017-08-22T01:40:21.958Z,16.34
2017-08-22T01:41:22.179Z,16.34
2017-08-22T01:42:21.842Z,16.35
2017-08-22T01:43:22.208Z,16.27
2017-08-22T01:44:22.120Z,16.27
2017-08-22T01:45:21.790Z,16.26
2017-08-22T01:46:22.091Z,16.24
2017-08-22T01:47:22.062Z,16.28
2017-08-22T01:48:22.041Z,16.31
2017-08-22T01:49:21.729Z,16.34
2017-08-22T01:50:22.010Z,16.36
2017-08-22T01:51:21.708Z,16.41
2017-08-22T01:52:21.673Z,16.28
2017-08-22T01:53:21.957Z,16.35
2017-08-22T01:54:21.642Z,16.41
2017-08-22T01:55:21.919Z,16.31
2017-08-22T01:56:21.970Z,16.31
2017-08-22T01:57:21.912Z,16.34
2017-08-22T01:58:21.585Z,16.31
2017-08-22T01:59:21.629Z,16.31
2017-08-22T02:00:21.561Z,16.27
2017-08-22T02:01:21.537Z,16.23
2017-08-22T02:02:21.543Z,16.23
2017-08-22T02:03:21.541Z,16.21
2017-08-22T02:04:21.781Z,16.17
2017-08-22T02:05:21.776Z,16.17
2017-08-22T02:06:21.589Z,16.23
2017-08-22T02:07:21.791Z,16.21
2017-08-22T02:08:21.758Z,16.15
2017-08-22T02:09:21.712Z,16.08
2017-08-22T02:10:21.684Z,16.04
2017-08-22T02:11:21.660Z,16.13
2017-08-22T02:12:21.365Z,16.12
2017-08-22T02:13:21.319Z,16.16
2017-08-22T02:14:21.702Z,16.05
2017-08-22T02:15:21.365Z,16.05
2017-08-22T02:16:21.293Z,16.02
2017-08-22T02:17:21.256Z,16.15
2017-08-22T02:18:21.542Z,16.13
2017-08-22T02:19:21.526Z,16.17
2017-08-22T02:20:21.521Z,16.15
2017-08-22T02:21:21.485Z,16.16
2017-08-22T02:22:21.533Z,16.05
2017-08-22T02:23:21.152Z,16.13
2017-08-22T02:24:21.131Z,16.05
2017-08-22T02:25:21.430Z,16.02
2017-08-22T02:26:21.097Z,15.95
2017-08-22T02:27:21.084Z,15.92
2017-08-22T02:28:21.115Z,16.02
2017-08-22T02:29:21.391Z,16.05
2017-08-22T02:30:21.041Z,16.01
2017-08-22T02:31:21.012Z,15.94
2017-08-22T02:32:21.321Z,15.98
2017-08-22T02:33:21.301Z,16.01
2017-08-22T02:34:21.262Z,15.98
2017-08-22T02:35:21.314Z,15.92
2017-08-22T02:36:20.930Z,15.9
2017-08-22T02:37:20.602Z,15.98
2017-08-22T02:38:21.212Z,16.01
2017-08-22T02:39:21.179Z,16.02
2017-08-22T02:40:21.164Z,15.92
2017-08-22T02:41:21.154Z,15.94
2017-08-22T02:42:21.122Z,16.01
2017-08-22T02:43:20.801Z,15.9
2017-08-22T02:44:20.781Z,15.94
2017-08-22T02:45:21.092Z,15.86
2017-08-22T02:46:21.052Z,15.9
2017-08-22T02:47:20.749Z,15.94
2017-08-22T02:48:20.722Z,16.01
2017-08-22T02:49:21.093Z,16
2017-08-22T02:50:20.688Z,16.1
2017-08-22T02:51:20.972Z,16.02
2017-08-22T02:52:20.962Z,16.12
2017-08-22T02:53:20.952Z,16.08
2017-08-22T02:54:20.922Z,16.04
2017-08-22T02:55:20.620Z,16.07
2017-08-22T02:56:20.875Z,16.04
2017-08-22T02:57:20.553Z,16.2
2017-08-22T02:58:20.852Z,16.1
2017-08-22T02:59:20.523Z,16.02
2017-08-22T03:00:20.498Z,16.05
2017-08-22T03:01:20.795Z,16.02
2017-08-22T03:02:20.476Z,16.1
2017-08-22T03:03:20.771Z,16.2
2017-08-22T03:04:20.443Z,16.15
2017-08-22T03:05:20.726Z,16.2
2017-08-22T03:06:20.720Z,16.2
2017-08-22T03:07:20.380Z,16.12
2017-08-22T03:08:20.362Z,16.13
2017-08-22T03:09:20.029Z,16.15
2017-08-22T03:10:20.644Z,16.04
2017-08-22T03:11:20.014Z,16.16
2017-08-22T03:12:20.612Z,16.24
2017-08-22T03:13:20.592Z,16.23
2017-08-22T03:14:20.271Z,16.2
2017-08-22T03:15:20.542Z,16.2
2017-08-22T03:16:20.231Z,16.2
2017-08-22T03:17:20.560Z,16.08
2017-08-22T03:18:20.523Z,16.12
2017-08-22T03:19:20.482Z,16.24
2017-08-22T03:20:19.863Z,16.23
2017-08-22T03:21:19.851Z,16.13
2017-08-22T03:22:20.458Z,16.21
2017-08-22T03:23:20.119Z,16.24
2017-08-22T03:24:20.418Z,16.17
2017-08-22T03:25:20.375Z,16.04
2017-08-22T03:26:20.381Z,15.97
2017-08-22T03:27:20.042Z,16.08
2017-08-22T03:28:20.022Z,16
2017-08-22T03:29:20.333Z,15.97
2017-08-22T03:30:20.340Z,15.95
2017-08-22T03:31:19.964Z,15.98
2017-08-22T03:32:20.260Z,15.95
2017-08-22T03:33:19.932Z,15.87
2017-08-22T03:34:19.621Z,15.95
2017-08-22T03:35:19.931Z,15.97
2017-08-22T03:36:19.885Z,15.92
2017-08-22T03:37:19.864Z,15.94
2017-08-22T03:38:19.671Z,15.87
2017-08-22T03:39:20.163Z,15.76
2017-08-22T03:40:19.832Z,15.79
2017-08-22T03:41:19.816Z,15.77
2017-08-22T03:42:20.084Z,15.76
2017-08-22T03:43:20.072Z,15.79
2017-08-22T03:44:19.754Z,15.76
2017-08-22T03:45:20.042Z,15.75
2017-08-22T03:46:20.031Z,15.79
2017-08-22T03:47:20.013Z,15.75
2017-08-22T03:48:19.983Z,15.69
2017-08-22T03:49:19.653Z,15.69
2017-08-22T03:50:19.421Z,15.71
2017-08-22T03:51:19.625Z,15.65
2017-08-22T03:52:19.914Z,15.71
2017-08-22T03:53:19.581Z,15.72
2017-08-22T03:54:19.591Z,15.68
2017-08-22T03:55:19.861Z,15.71
2017-08-22T03:56:19.842Z,15.65
2017-08-22T03:57:19.533Z,15.61
2017-08-22T03:58:19.500Z,15.6
2017-08-22T03:59:19.482Z,15.68
2017-08-22T04:00:19.461Z,15.75
2017-08-22T04:01:19.764Z,15.64
2017-08-22T04:02:19.430Z,15.6
2017-08-22T04:03:19.751Z,15.65
2017-08-22T04:04:19.724Z,15.62
2017-08-22T04:05:19.383Z,15.67
2017-08-22T04:06:19.662Z,15.61
2017-08-22T04:07:19.043Z,15.5
2017-08-22T04:08:19.454Z,15.53
2017-08-22T04:09:19.635Z,15.57
2017-08-22T04:10:19.292Z,15.46
2017-08-22T04:11:19.288Z,15.54
2017-08-22T04:12:19.372Z,15.57
2017-08-22T04:13:19.364Z,15.57
2017-08-22T04:14:19.249Z,15.52
2017-08-22T04:15:19.228Z,15.52
2017-08-22T04:16:19.242Z,15.54
2017-08-22T04:17:19.169Z,15.53
2017-08-22T04:18:19.165Z,15.57
2017-08-22T04:19:19.150Z,15.47
2017-08-22T04:20:19.438Z,15.52
2017-08-22T04:21:19.414Z,15.53
2017-08-22T04:22:19.392Z,15.61
2017-08-22T04:23:19.392Z,15.52
2017-08-22T04:24:19.363Z,15.47
2017-08-22T04:25:19.037Z,15.57
2017-08-22T04:26:19.320Z,15.54
2017-08-22T04:27:19.303Z,15.49
2017-08-22T04:28:18.683Z,15.47
2017-08-22T04:29:19.273Z,15.47
2017-08-22T04:30:18.941Z,15.54
2017-08-22T04:31:19.257Z,15.58
2017-08-22T04:32:18.917Z,15.53
2017-08-22T04:33:19.222Z,15.58
2017-08-22T04:34:19.199Z,15.49
2017-08-22T04:35:19.165Z,15.58
2017-08-22T04:36:19.152Z,15.58
2017-08-22T04:37:19.147Z,15.53
2017-08-22T04:38:18.814Z,15.6
2017-08-22T04:39:19.131Z,15.5
2017-08-22T04:40:18.789Z,15.47
2017-08-22T04:41:18.763Z,15.57
2017-08-22T04:42:18.732Z,15.49
2017-08-22T04:43:18.730Z,15.46
2017-08-22T04:44:19.001Z,15.53
2017-08-22T04:45:18.984Z,15.52
2017-08-22T04:46:18.972Z,15.54
2017-08-22T04:47:18.971Z,15.49
2017-08-22T04:48:18.937Z,15.54
2017-08-22T04:49:18.318Z,15.47
2017-08-22T04:50:18.593Z,15.49
2017-08-22T04:51:18.581Z,15.58
2017-08-22T04:52:18.572Z,15.42
2017-08-22T04:53:18.851Z,15.12
2017-08-22T04:54:18.531Z,15.03
2017-08-22T04:55:18.821Z,14.87
2017-08-22T04:56:18.810Z,14.82
2017-08-22T04:57:18.791Z,14.66
2017-08-22T04:58:18.761Z,14.47
2017-08-22T04:59:18.751Z,14.54
2017-08-22T05:00:18.722Z,14.42
2017-08-22T05:01:18.412Z,14.5
2017-08-22T05:02:18.703Z,14.47
2017-08-22T05:03:18.071Z,14.44
2017-08-22T05:04:18.351Z,14.47
2017-08-22T05:05:18.642Z,14.5
2017-08-22T05:06:18.313Z,14.46
2017-08-22T05:07:18.603Z,14.38
2017-08-22T05:08:18.585Z,14.42
2017-08-22T05:09:18.265Z,14.26
2017-08-22T05:10:18.251Z,14.2
2017-08-22T05:11:18.241Z,14.14
2017-08-22T05:12:18.518Z,14.07
2017-08-22T05:13:18.192Z,14.21
2017-08-22T05:14:18.162Z,14.15
2017-08-22T05:15:18.156Z,14.29
2017-08-22T05:16:18.190Z,14.5
2017-08-22T05:17:18.419Z,14.53
2017-08-22T05:18:18.092Z,14.62
2017-08-22T05:19:18.092Z,14.68
2017-08-22T05:20:18.381Z,14.82
2017-08-22T05:21:18.052Z,14.8
2017-08-22T05:22:18.033Z,14.91
2017-08-22T05:23:18.323Z,14.91
2017-08-22T05:24:18.122Z,14.66
2017-08-22T05:25:17.971Z,14.57
2017-08-22T05:26:18.381Z,14.65
2017-08-22T05:27:18.229Z,14.7
2017-08-22T05:28:18.320Z,14.65
2017-08-22T05:29:18.250Z,14.62
2017-08-22T05:30:18.211Z,14.63
2017-08-22T05:31:18.200Z,14.69
2017-08-22T05:32:17.545Z,14.85
2017-08-22T05:33:18.141Z,15.04
2017-08-22T05:34:17.799Z,15.1
2017-08-22T05:35:18.092Z,15.16
2017-08-22T05:36:18.230Z,15.14
2017-08-22T05:37:17.756Z,15.21
2017-08-22T05:38:18.151Z,15.17
2017-08-22T05:39:18.033Z,15.22
2017-08-22T05:40:17.703Z,15.25
2017-08-22T05:41:17.994Z,15.25
2017-08-22T05:42:17.669Z,15.14
2017-08-22T05:43:18.091Z,14.96
2017-08-22T05:44:17.641Z,14.87
2017-08-22T05:45:17.620Z,14.79
2017-08-22T05:46:17.900Z,14.75
2017-08-22T05:47:17.605Z,14.72
2017-08-22T05:48:17.867Z,14.75
2017-08-22T05:49:17.860Z,14.55
2017-08-22T05:50:17.530Z,14.63
2017-08-22T05:51:17.919Z,14.69
2017-08-22T05:52:17.495Z,14.68
2017-08-22T05:53:17.570Z,14.58
2017-08-22T05:54:17.461Z,14.7
2017-08-22T05:55:17.899Z,14.84
2017-08-22T05:56:17.467Z,15
2017-08-22T05:57:17.722Z,15.13
2017-08-22T05:58:17.814Z,15.14
2017-08-22T05:59:17.065Z,15.16
2017-08-22T06:00:17.660Z,15.27
2017-08-22T06:01:17.899Z,15.43
2017-08-22T06:02:17.307Z,15.52
2017-08-22T06:03:17.299Z,15.53
2017-08-22T06:04:17.592Z,15.5
2017-08-22T06:05:16.946Z,15.52
2017-08-22T06:06:17.574Z,15.64
2017-08-22T06:07:17.617Z,15.8
2017-08-22T06:08:17.518Z,15.75
2017-08-22T06:09:17.583Z,15.8
2017-08-22T06:10:17.162Z,15.9
2017-08-22T06:11:17.150Z,15.97
2017-08-22T06:12:17.439Z,16.02
2017-08-22T06:13:17.520Z,16.05
2017-08-22T06:14:17.100Z,16
2017-08-22T06:15:17.090Z,15.94
2017-08-22T06:16:17.087Z,16.02
2017-08-22T06:17:17.362Z,16.05
2017-08-22T06:18:17.341Z,16.15
2017-08-22T06:19:17.009Z,16.15
2017-08-22T06:20:17.320Z,16.15
2017-08-22T06:21:16.995Z,16.17
2017-08-22T06:22:16.954Z,16.34
2017-08-22T06:23:16.950Z,16.42
2017-08-22T06:24:16.930Z,16.35
2017-08-22T06:25:16.989Z,16.35
2017-08-22T06:26:16.890Z,16.41
2017-08-22T06:27:16.870Z,16.43
2017-08-22T06:28:16.860Z,16.5
2017-08-22T06:29:17.149Z,16.56
2017-08-22T06:30:16.842Z,16.53
2017-08-22T06:31:16.811Z,16.6
2017-08-22T06:32:16.812Z,16.57
2017-08-22T06:33:17.080Z,16.64
2017-08-22T06:34:16.771Z,16.75
2017-08-22T06:35:16.765Z,16.72
2017-08-22T06:36:16.734Z,16.74
2017-08-22T06:37:17.019Z,16.87
2017-08-22T06:38:17.020Z,16.87
2017-08-22T06:39:16.988Z,16.96
2017-08-22T06:40:16.959Z,17.08
2017-08-22T06:41:16.950Z,17.09
2017-08-22T06:42:16.927Z,17.19
2017-08-22T06:43:16.922Z,17.31
2017-08-22T06:44:16.900Z,17.36
2017-08-22T06:45:16.901Z,17.44
2017-08-22T06:46:16.890Z,17.46
2017-08-22T06:47:16.860Z,17.54
2017-08-22T06:48:16.540Z,17.62
2017-08-22T06:49:16.840Z,17.64
2017-08-22T06:50:16.820Z,17.78
2017-08-22T06:51:16.790Z,17.86
2017-08-22T06:52:16.492Z,17.83
2017-08-22T06:53:16.774Z,17.93
2017-08-22T06:54:16.791Z,17.86
2017-08-22T06:55:16.733Z,17.8
2017-08-22T06:56:16.412Z,17.92
2017-08-22T06:57:16.696Z,18.01
2017-08-22T06:58:16.681Z,18.01
2017-08-22T06:59:16.696Z,18.12
2017-08-22T07:00:16.662Z,18.02
2017-08-22T07:01:16.330Z,18
2017-08-22T07:02:16.340Z,18.1
2017-08-22T07:03:16.315Z,18.12
2017-08-22T07:04:16.591Z,18.25
2017-08-22T07:05:16.610Z,18.23
2017-08-22T07:06:16.270Z,18.27
2017-08-22T07:07:16.260Z,18.35
2017-08-22T07:08:16.241Z,18.38
2017-08-22T07:09:16.210Z,18.48
2017-08-22T07:10:16.508Z,18.35
2017-08-22T07:11:15.880Z,18.41
2017-08-22T07:12:16.479Z,18.38
2017-08-22T07:13:16.459Z,18.51
2017-08-22T07:14:16.131Z,18.48
2017-08-22T07:15:15.814Z,18.65
2017-08-22T07:16:16.423Z,18.59
2017-08-22T07:17:15.880Z,18.67
2017-08-22T07:18:16.412Z,18.77
2017-08-22T07:19:16.389Z,18.93
2017-08-22T07:20:16.340Z,19.06
2017-08-22T07:21:16.340Z,19.23
2017-08-22T07:22:16.330Z,19.23
2017-08-22T07:23:16.321Z,19.33
2017-08-22T07:24:16.298Z,19.21
2017-08-22T07:25:16.300Z,19.37
2017-08-22T07:26:16.296Z,19.34
2017-08-22T07:27:16.030Z,19.44
2017-08-22T07:28:15.930Z,19.46
2017-08-22T07:29:16.259Z,19.37
2017-08-22T07:30:16.220Z,19.38
2017-08-22T07:31:16.209Z,19.38
2017-08-22T07:32:15.884Z,19.37
2017-08-22T07:33:16.160Z,19.19
2017-08-22T07:34:15.858Z,19.28
2017-08-22T07:35:15.850Z,19.21
2017-08-22T07:36:15.830Z,19.33
2017-08-22T07:37:16.138Z,19.21
2017-08-22T07:38:15.492Z,19.4
2017-08-22T07:39:16.090Z,19.51
2017-08-22T07:40:16.069Z,19.49
2017-08-22T07:41:16.070Z,19.52
2017-08-22T07:42:16.061Z,19.58
2017-08-22T07:43:16.050Z,19.73
2017-08-22T07:44:15.723Z,19.69
2017-08-22T07:45:15.800Z,19.81
2017-08-22T07:46:15.707Z,19.81
2017-08-22T07:47:15.981Z,19.78
2017-08-22T07:48:15.664Z,19.95
2017-08-22T07:49:15.652Z,19.95
2017-08-22T07:50:15.664Z,19.88
2017-08-22T07:51:15.631Z,19.81
2017-08-22T07:52:15.605Z,19.83
2017-08-22T07:53:15.626Z,19.85
2017-08-22T07:54:15.592Z,19.85
2017-08-22T07:55:15.581Z,19.81
2017-08-22T07:56:15.880Z,19.83
2017-08-22T07:57:16.070Z,19.96
2017-08-22T07:58:15.840Z,20.08
2017-08-22T07:59:15.828Z,20.33
2017-08-22T08:00:15.932Z,20.4
2017-08-22T08:01:16.042Z,20.44
2017-08-22T08:02:15.820Z,20.48
2017-08-22T08:03:15.794Z,20.44
2017-08-22T08:04:15.551Z,20.48
2017-08-22T08:05:15.748Z,20.64
2017-08-22T08:06:15.751Z,20.69
2017-08-22T08:07:15.420Z,20.69
2017-08-22T08:08:15.440Z,20.72
2017-08-22T08:09:15.780Z,20.91
2017-08-22T08:10:15.782Z,21.28
2017-08-22T08:11:15.727Z,21.52
2017-08-22T08:12:15.680Z,21.65
2017-08-22T08:13:15.651Z,21.88
2017-08-22T08:14:15.701Z,22
2017-08-22T08:15:15.631Z,22.06
2017-08-22T08:16:15.665Z,22.37
2017-08-22T08:17:15.601Z,22.45
2017-08-22T08:18:15.280Z,22.55
2017-08-22T08:19:15.720Z,22.54
2017-08-22T08:20:15.269Z,22.77
2017-08-22T08:21:15.562Z,23.1
2017-08-22T08:22:14.949Z,23.29
2017-08-22T08:23:15.562Z,23.33
2017-08-22T08:24:15.541Z,23.03
2017-08-22T08:25:15.223Z,22.67
2017-08-22T08:26:15.511Z,22.69
2017-08-22T08:27:15.183Z,22.7
2017-08-22T08:28:14.861Z,22.66
2017-08-22T08:29:15.482Z,23.24
2017-08-22T08:30:15.189Z,23.6
2017-08-22T08:31:15.150Z,24.02
2017-08-22T08:32:15.460Z,24.47
2017-08-22T08:33:15.441Z,24.75
2017-08-22T08:34:15.448Z,24.89
2017-08-22T08:35:15.123Z,24.99
2017-08-22T08:36:15.115Z,25.03
2017-08-22T08:37:14.871Z,25.25
2017-08-22T08:38:15.412Z,25.44
2017-08-22T08:39:15.087Z,25.66
2017-08-22T08:40:15.383Z,25.84
2017-08-22T08:41:15.080Z,26.2
2017-08-22T08:42:15.375Z,26.29
2017-08-22T08:43:15.377Z,26.38
2017-08-22T08:44:14.753Z,26.44
2017-08-22T08:45:15.057Z,26.32
2017-08-22T08:46:15.042Z,26.44
2017-08-22T08:47:15.033Z,26.49
2017-08-22T08:48:15.036Z,26.78
2017-08-22T08:49:15.033Z,26.82
2017-08-22T08:50:15.033Z,26.93
2017-08-22T08:51:15.021Z,27.03
2017-08-22T08:52:15.016Z,27.19
2017-08-22T08:53:15.221Z,27.23
2017-08-22T08:54:15.022Z,27.28
2017-08-22T08:55:14.995Z,27.33
2017-08-22T08:56:15.316Z,27.28
2017-08-22T08:57:15.315Z,27.25
2017-08-22T08:58:15.303Z,27.21
2017-08-22T08:59:15.283Z,26.7
2017-08-22T09:00:14.970Z,26.81
2017-08-22T09:01:15.278Z,27.04
2017-08-22T09:02:14.974Z,27.12
2017-08-22T09:03:15.271Z,27.12
2017-08-22T09:04:15.282Z,27.26
2017-08-22T09:05:15.272Z,27.48
2017-08-22T09:06:15.271Z,27.43
2017-08-22T09:07:14.959Z,27.48
2017-08-22T09:08:14.941Z,27.64
2017-08-22T09:09:14.942Z,27.66
2017-08-22T09:10:15.240Z,27.86
2017-08-22T09:11:14.969Z,27.88
2017-08-22T09:12:15.291Z,27.91
2017-08-22T09:13:15.235Z,27.96
2017-08-22T09:14:14.932Z,28.23
2017-08-22T09:15:14.621Z,28.3
2017-08-22T09:16:14.611Z,28.46
2017-08-22T09:17:15.220Z,28.55
2017-08-22T09:18:15.231Z,28.34
2017-08-22T09:19:15.223Z,28.5
2017-08-22T09:20:15.203Z,28.52
2017-08-22T09:21:15.221Z,28.46
2017-08-22T09:22:15.214Z,28.47
2017-08-22T09:23:15.205Z,28.62
2017-08-22T09:24:15.228Z,28.52
2017-08-22T09:25:14.911Z,28.56
2017-08-22T09:26:15.199Z,28.67
2017-08-22T09:27:15.433Z,28.62
2017-08-22T09:28:14.880Z,28.84
2017-08-22T09:29:15.198Z,28.77
2017-08-22T09:30:14.870Z,28.8
2017-08-22T09:31:14.873Z,28.52
2017-08-22T09:32:14.878Z,28.27
2017-08-22T09:33:14.871Z,28.08
2017-08-22T09:34:14.864Z,28.18
2017-08-22T09:35:15.174Z,28.46
2017-08-22T09:36:15.169Z,28.45
2017-08-22T09:37:15.176Z,28.5
2017-08-22T09:38:15.160Z,28.52
2017-08-22T09:39:14.852Z,28.7
2017-08-22T09:40:15.154Z,28.8
2017-08-22T09:41:15.150Z,28.9
2017-08-22T09:42:15.174Z,29.03
2017-08-22T09:43:14.838Z,29.07
2017-08-22T09:44:15.166Z,28.95
2017-08-22T09:45:14.543Z,28.9
2017-08-22T09:46:14.534Z,28.83
2017-08-22T09:47:14.836Z,29
2017-08-22T09:48:15.131Z,29.06
2017-08-22T09:49:14.850Z,29.18
2017-08-22T09:50:14.824Z,29.24
2017-08-22T09:51:15.124Z,29.24
2017-08-22T09:52:15.132Z,29.37
2017-08-22T09:53:14.800Z,29.37
2017-08-22T09:54:15.128Z,29.33
2017-08-22T09:55:15.126Z,29.21
2017-08-22T09:56:15.110Z,29.46
2017-08-22T09:57:15.101Z,29.62
2017-08-22T09:58:15.169Z,29.65
2017-08-22T09:59:14.791Z,29.81
2017-08-22T10:00:15.163Z,29.72
2017-08-22T10:01:15.098Z,29.54
2017-08-22T10:02:15.092Z,28.87
2017-08-22T10:03:14.776Z,28.06
2017-08-22T10:04:15.080Z,27.91
2017-08-22T10:05:15.082Z,28.08
2017-08-22T10:06:15.077Z,28.31
2017-08-22T10:07:15.301Z,28.46
2017-08-22T10:08:15.100Z,28.58
2017-08-22T10:09:15.063Z,28.72
2017-08-22T10:10:15.061Z,28.9
2017-08-22T10:11:14.454Z,28.72
2017-08-22T10:12:14.782Z,28.77
2017-08-22T10:13:15.032Z,28.71
2017-08-22T10:14:14.739Z,28.31
2017-08-22T10:15:14.733Z,28.42
2017-08-22T10:16:14.732Z,28.53
2017-08-22T10:17:15.029Z,28.79
2017-08-22T10:18:14.717Z,28.93
2017-08-22T10:19:14.719Z,29.12
2017-08-22T10:20:15.023Z,29.35
2017-08-22T10:21:15.053Z,29.51
2017-08-22T10:22:14.718Z,29.74
2017-08-22T10:23:14.993Z,29.61
2017-08-22T10:24:14.992Z,29.54
2017-08-22T10:25:14.674Z,29.44
2017-08-22T10:26:14.669Z,29.25
2017-08-22T10:27:14.671Z,29.59
2017-08-22T10:28:14.984Z,29.57
2017-08-22T10:29:15.023Z,29.61
2017-08-22T10:30:14.965Z,29.7
2017-08-22T10:31:14.745Z,29.7
2017-08-22T10:32:14.945Z,29.86
2017-08-22T10:33:14.701Z,29.99
2017-08-22T10:34:14.621Z,29.66
2017-08-22T10:35:14.941Z,29.33
2017-08-22T10:36:14.921Z,28.97
2017-08-22T10:37:14.911Z,28.83
2017-08-22T10:38:14.913Z,28.6
2017-08-22T10:39:14.905Z,28.21
2017-08-22T10:40:14.908Z,27.84
2017-08-22T10:41:14.892Z,27.53
2017-08-22T10:42:14.584Z,27.34
2017-08-22T10:43:14.589Z,27.23
2017-08-22T10:44:14.572Z,27.18
2017-08-22T10:45:14.861Z,26.98
2017-08-22T10:46:14.851Z,26.84
2017-08-22T10:47:14.846Z,26.86
2017-08-22T10:48:14.527Z,26.84
2017-08-22T10:49:14.850Z,26.7
2017-08-22T10:50:14.850Z,26.59
2017-08-22T10:51:14.511Z,26.41
2017-08-22T10:52:14.502Z,26.27
2017-08-22T10:53:14.492Z,26.34
2017-08-22T10:54:14.791Z,26.29
2017-08-22T10:55:14.781Z,26.24
2017-08-22T10:56:14.472Z,26.24
2017-08-22T10:57:14.467Z,26.38
2017-08-22T10:58:14.767Z,26.63
2017-08-22T10:59:14.448Z,26.6
2017-08-22T11:00:14.739Z,26.63
2017-08-22T11:01:14.738Z,26.49
2017-08-22T11:02:14.731Z,26.54
2017-08-22T11:03:14.417Z,26.41
2017-08-22T11:04:14.732Z,26.42
2017-08-22T11:05:14.713Z,26.48
2017-08-22T11:06:14.804Z,26.37
2017-08-22T11:07:14.066Z,26.26
2017-08-22T11:08:14.685Z,26.22
2017-08-22T11:09:14.362Z,26.22
2017-08-22T11:10:14.743Z,26.39
2017-08-22T11:11:14.341Z,26.48
2017-08-22T11:12:14.430Z,26.51
2017-08-22T11:13:14.346Z,26.37
2017-08-22T11:14:14.623Z,26.29
2017-08-22T11:15:14.376Z,26.13
2017-08-22T11:16:14.607Z,26.08
2017-08-22T11:17:14.600Z,26.2
2017-08-22T11:18:14.661Z,26.17
2017-08-22T11:19:14.284Z,26.38
2017-08-22T11:20:14.613Z,26.41
2017-08-22T11:21:14.562Z,26.67
2017-08-22T11:22:14.589Z,27.06
2017-08-22T11:23:14.611Z,27.34
2017-08-22T11:24:14.532Z,27.3
2017-08-22T11:25:14.532Z,27.55
2017-08-22T11:26:13.899Z,27.6
2017-08-22T11:27:14.511Z,27.28
2017-08-22T11:28:14.502Z,27.4
2017-08-22T11:29:14.489Z,27.43
2017-08-22T11:30:14.511Z,27.4
2017-08-22T11:31:14.473Z,27.06
2017-08-22T11:32:14.477Z,27
2017-08-22T11:33:14.449Z,26.98
2017-08-22T11:34:14.474Z,27.23
2017-08-22T11:35:14.447Z,27.53
2017-08-22T11:36:13.819Z,27.61
2017-08-22T11:37:14.451Z,27.59
2017-08-22T11:38:14.423Z,27.44
2017-08-22T11:39:14.141Z,27.41
2017-08-22T11:40:14.416Z,27.21
2017-08-22T11:41:14.415Z,27.01
2017-08-22T11:42:14.403Z,27
2017-08-22T11:43:14.073Z,26.93
2017-08-22T11:44:14.401Z,27.01
2017-08-22T11:45:14.356Z,27.16
2017-08-22T11:46:13.744Z,27.37
2017-08-22T11:47:14.053Z,27.72
2017-08-22T11:48:14.345Z,28.03
2017-08-22T11:49:14.022Z,28.24
2017-08-22T11:50:14.419Z,28.25
2017-08-22T11:51:14.396Z,28.37
2017-08-22T11:52:14.403Z,28.38
2017-08-22T11:53:14.084Z,28.33
2017-08-22T11:54:14.001Z,28.42
2017-08-22T11:55:14.342Z,28.53
2017-08-22T11:56:13.958Z,28.46
2017-08-22T11:57:14.357Z,28.55
2017-08-22T11:58:13.951Z,28.56
2017-08-22T11:59:14.242Z,28.79
2017-08-22T12:00:14.265Z,28.86
2017-08-22T12:01:13.923Z,28.83
2017-08-22T12:02:14.258Z,28.97
2017-08-22T12:03:13.903Z,29.05
2017-08-22T12:04:13.895Z,29.1
2017-08-22T12:05:13.900Z,29.07
2017-08-22T12:06:14.215Z,29.1
2017-08-22T12:07:14.273Z,29.21
2017-08-22T12:08:14.177Z,29.18
2017-08-22T12:09:14.214Z,28.95
2017-08-22T12:10:14.172Z,28.87
2017-08-22T12:11:13.863Z,28.8
2017-08-22T12:12:14.140Z,28.62
2017-08-22T12:13:14.153Z,28.3
2017-08-22T12:14:13.707Z,28.13
2017-08-22T12:15:14.151Z,27.98
2017-08-22T12:16:13.818Z,27.82
2017-08-22T12:17:14.104Z,27.64
2017-08-22T12:18:13.794Z,27.52
2017-08-22T12:19:14.100Z,27.44
2017-08-22T12:20:14.083Z,27.36
2017-08-22T12:21:13.769Z,27.38
2017-08-22T12:22:14.082Z,27.28
2017-08-22T12:23:13.773Z,27.22
2017-08-22T12:24:14.055Z,27.11
2017-08-22T12:25:13.855Z,27.03
2017-08-22T12:26:14.031Z,26.98
2017-08-22T12:27:14.041Z,27.18
2017-08-22T12:28:14.012Z,27.18
2017-08-22T12:29:14.012Z,27.09
2017-08-22T12:30:14.141Z,27.03
2017-08-22T12:31:14.012Z,26.86
2017-08-22T12:32:13.919Z,26.74
2017-08-22T12:33:14.082Z,26.69
2017-08-22T12:34:13.983Z,26.6
2017-08-22T12:35:13.967Z,26.54
2017-08-22T12:36:13.964Z,26.49
2017-08-22T12:37:13.981Z,26.56
2017-08-22T12:38:13.952Z,26.64
2017-08-22T12:39:13.941Z,26.78
2017-08-22T12:40:14.040Z,26.94
2017-08-22T12:41:14.021Z,27.22
2017-08-22T12:42:13.974Z,27.36
2017-08-22T12:43:13.911Z,27.41
2017-08-22T12:44:13.886Z,27.53
2017-08-22T12:45:13.872Z,27.74
2017-08-22T12:46:13.571Z,27.87
2017-08-22T12:47:13.923Z,27.9
2017-08-22T12:48:13.561Z,28
2017-08-22T12:49:13.871Z,28.1
2017-08-22T12:50:13.540Z,28.24
2017-08-22T12:51:13.522Z,28.46
2017-08-22T12:52:13.521Z,28.6
2017-08-22T12:53:13.810Z,28.83
2017-08-22T12:54:13.801Z,28.86
2017-08-22T12:55:13.792Z,28.97
2017-08-22T12:56:13.489Z,29.05